Time;durP1;ratioP1;P1;durP2;ratioP2;P2;SDS_P1;SDS_P2;PMS_P1;PMS_P2;Temp;Humidity;BMP_temperature;BMP_pressure;BME280_temperature;BME280_humidity;BME280_pressure;Samples;Min_cycle;Max_cycle;Signal;HPM_P1;HPM_P2
2022/11/30 00:01:23;;;;;;;34.97;11.50;;;4.70;99.90;;;;;;5006851;28;20056;-73
2022/11/30 00:03:56;;;;;;;31.42;10.82;;;4.70;99.90;;;;;;5010440;28;20045;-63
2022/11/30 00:06:24;;;;;;;34.78;11.55;;;;;;;;;;5023132;28;20037;-62
2022/11/30 00:08:54;;;;;;;35.55;11.32;;;4.70;99.90;;;;;;5026069;28;20061;-68
2022/11/30 00:11:23;;;;;;;33.97;10.77;;;4.60;99.90;;;;;;5024183;28;20038;-63
2022/11/30 00:13:50;;;;;;;38.63;11.87;;;4.60;99.90;;;;;;5021785;28;20056;-62
2022/11/30 00:16:18;;;;;;;37.10;10.63;;;4.60;99.90;;;;;;5021661;28;20065;-63
2022/11/30 00:18:46;;;;;;;39.80;11.38;;;4.60;99.90;;;;;;5024618;28;20057;-63
2022/11/30 00:21:14;;;;;;;37.70;10.63;;;4.60;99.90;;;;;;5022493;28;20665;-67
2022/11/30 00:23:46;;;;;;;43.15;13.10;;;4.60;99.90;;;;;;5023542;28;20057;-66
2022/11/30 00:26:17;;;;;;;40.45;11.95;;;4.60;99.90;;;;;;5026321;28;20037;-62
2022/11/30 00:28:45;;;;;;;43.72;11.27;;;4.60;99.90;;;;;;5019935;28;20057;-63
2022/11/30 00:31:15;;;;;;;51.35;12.60;;;4.60;99.90;;;;;;5011119;28;20052;-62
2022/11/30 00:33:43;;;;;;;50.30;13.07;;;4.70;99.90;;;;;;5024816;28;20053;-62
2022/11/30 00:36:13;;;;;;;39.63;11.35;;;4.70;99.90;;;;;;5027488;28;20042;-65
2022/11/30 00:38:42;;;;;;;38.92;12.35;;;4.70;99.90;;;;;;5021962;28;20050;-63
2022/11/30 00:41:10;;;;;;;43.63;13.52;;;4.60;99.90;;;;;;5052193;28;20041;-64
2022/11/30 00:43:38;;;;;;;48.55;12.38;;;4.60;99.90;;;;;;5022988;28;20060;-64
2022/11/30 00:46:09;;;;;;;49.25;13.52;;;4.60;99.90;;;;;;5027020;28;20489;-63
2022/11/30 00:48:38;;;;;;;62.03;13.95;;;4.60;99.90;;;;;;5028722;28;20515;-62
2022/11/30 00:51:08;;;;;;;44.72;12.30;;;4.60;99.90;;;;;;5014710;28;20409;-62
2022/11/30 00:53:35;;;;;;;;;;;4.60;99.90;;;;;;5014852;28;20052;-62
2022/11/30 00:56:03;;;;;;;46.60;11.35;;;;;;;;;;5010100;28;19922;-68
2022/11/30 00:58:31;;;;;;;43.47;11.50;;;4.50;99.90;;;;;;5024731;28;20080;-62
2022/11/30 01:00:59;;;;;;;34.03;9.82;;;4.60;99.90;;;;;;5008663;28;20049;-64
2022/11/30 01:03:27;;;;;;;49.25;11.93;;;4.50;99.90;;;;;;5004858;28;20053;-69
2022/11/30 01:05:59;;;;;;;38.03;10.00;;;4.50;99.90;;;;;;5024949;28;20045;-67
2022/11/30 01:08:27;;;;;;;31.58;9.93;;;4.50;99.90;;;;;;5018928;28;20061;-63
2022/11/30 01:10:56;;;;;;;37.92;9.52;;;4.50;99.90;;;;;;5022694;28;20045;-65
2022/11/30 01:13:24;;;;;;;35.78;11.07;;;4.50;99.90;;;;;;5016354;28;20416;-62
2022/11/30 01:15:51;;;;;;;42.38;11.90;;;4.50;99.90;;;;;;5026802;28;20049;-63
2022/11/30 01:18:19;;;;;;;36.10;11.32;;;4.40;99.90;;;;;;5028375;28;20099;-72
2022/11/30 01:20:46;;;;;;;43.42;11.98;;;4.40;99.90;;;;;;5027024;28;20397;-76
2022/11/30 01:23:14;;;;;;;40.15;11.13;;;4.40;99.90;;;;;;5029629;28;20053;-77
2022/11/30 01:25:42;;;;;;;43.83;11.75;;;4.40;99.90;;;;;;5026888;28;20052;-64
2022/11/30 01:28:11;;;;;;;42.60;11.63;;;4.40;99.90;;;;;;5021423;28;20378;-63
2022/11/30 01:30:38;;;;;;;38.13;10.68;;;4.40;99.90;;;;;;5016007;28;20322;-65
2022/11/30 01:33:06;;;;;;;35.28;10.48;;;4.40;99.90;;;;;;5026924;28;20515;-63
2022/11/30 01:35:34;;;;;;;41.65;11.70;;;4.40;99.90;;;;;;5027817;28;20045;-63
2022/11/30 01:38:01;;;;;;;40.33;11.13;;;4.30;99.90;;;;;;5026163;28;20052;-64
2022/11/30 01:40:29;;;;;;;44.50;11.32;;;4.30;99.90;;;;;;5025337;28;20159;-76
2022/11/30 01:42:56;;;;;;;43.22;9.77;;;4.30;99.90;;;;;;5023625;28;20054;-67
2022/11/30 01:45:24;;;;;;;41.40;10.15;;;4.30;99.90;;;;;;5024774;28;20415;-76
2022/11/30 01:47:55;;;;;;;39.97;11.95;;;4.30;99.90;;;;;;5027628;28;20540;-74
2022/11/30 01:50:33;;;;;;;46.97;10.43;;;4.30;99.90;;;;;;5022241;28;20053;-73
2022/11/30 01:53:02;;;;;;;44.95;11.77;;;4.30;99.90;;;;;;5011244;28;20048;-66
2022/11/30 01:55:41;;;;;;;51.75;11.50;;;4.30;99.90;;;;;;5028003;28;20501;-71
2022/11/30 01:58:12;;;;;;;38.17;12.15;;;4.30;99.90;;;;;;5028526;28;20057;-71
2022/11/30 02:00:45;;;;;;;42.83;10.52;;;4.40;99.90;;;;;;5011804;28;20046;-76
2022/11/30 02:03:33;;;;;;;37.83;11.45;;;4.30;99.90;;;;;;5017182;28;20063;-69
2022/11/30 02:06:01;;;;;;;35.92;10.93;;;4.30;99.90;;;;;;5019035;28;20045;-79
2022/11/30 02:08:30;;;;;;;42.38;10.73;;;4.30;99.90;;;;;;5027947;28;20057;-76
2022/11/30 02:11:04;;;;;;;53.65;11.75;;;4.30;99.90;;;;;;5027049;28;20041;-76
2022/11/30 02:14:09;;;;;;;43.13;11.05;;;4.30;99.90;;;;;;5033582;28;20045;-73
2022/11/30 02:17:06;;;;;;;40.53;10.43;;;4.30;99.90;;;;;;5013439;28;20037;-75
2022/11/30 02:19:57;;;;;;;37.47;10.00;;;4.30;99.90;;;;;;5022016;28;20069;-75
2022/11/30 02:22:36;;;;;;;43.70;10.98;;;4.30;99.90;;;;;;5027551;28;20048;-76
2022/11/30 02:25:43;;;;;;;38.80;10.85;;;4.30;99.90;;;;;;5028478;28;20049;-75
2022/11/30 02:28:47;;;;;;;38.63;9.98;;;4.30;99.90;;;;;;4997463;28;20048;-76
2022/11/30 02:31:20;;;;;;;33.30;9.73;;;4.30;99.90;;;;;;5008428;28;20038;-67
2022/11/30 02:33:49;;;;;;;30.88;9.10;;;4.20;99.90;;;;;;5013254;28;20045;-63
2022/11/30 02:36:19;;;;;;;32.35;8.23;;;4.20;99.90;;;;;;5018480;28;20068;-73
2022/11/30 02:38:47;;;;;;;30.10;9.05;;;4.20;99.90;;;;;;5032989;28;20396;-68
2022/11/30 02:41:15;;;;;;;26.85;7.90;;;4.20;99.90;;;;;;5022304;28;20041;-69
2022/11/30 02:43:43;;;;;;;27.02;8.85;;;4.10;99.90;;;;;;5030969;28;20057;-68
2022/11/30 02:46:15;;;;;;;33.70;9.95;;;4.10;99.90;;;;;;5029412;28;20033;-71
2022/11/30 02:48:49;;;;;;;28.58;9.02;;;4.10;99.90;;;;;;5023791;28;20060;-66
2022/11/30 02:51:23;;;;;;;30.05;7.93;;;4.20;99.90;;;;;;5016522;28;20512;-69
2022/11/30 02:53:51;;;;;;;35.55;9.10;;;4.10;99.90;;;;;;5019808;28;20050;-69
2022/11/30 02:56:19;;;;;;;27.88;9.05;;;4.10;99.90;;;;;;5034499;28;20041;-74
2022/11/30 02:58:55;;;;;;;28.55;8.32;;;4.10;99.90;;;;;;5031127;28;20365;-64
2022/11/30 03:01:24;;;;;;;31.17;8.68;;;4.10;99.90;;;;;;5014525;28;20053;-71
2022/11/30 03:03:52;;;;;;;28.55;9.55;;;4.10;99.90;;;;;;5027924;28;20056;-73
2022/11/30 03:06:20;;;;;;;34.33;9.73;;;4.10;99.90;;;;;;5021169;28;20030;-67
2022/11/30 03:08:47;;;;;;;33.35;9.13;;;4.10;99.90;;;;;;5034276;28;20512;-69
2022/11/30 03:11:15;;;;;;;36.35;9.82;;;4.20;99.90;;;;;;5033124;28;20038;-74
2022/11/30 03:13:42;;;;;;;34.38;9.88;;;4.10;99.90;;;;;;5020776;28;20053;-62
2022/11/30 03:16:11;;;;;;;34.65;10.30;;;4.10;99.90;;;;;;5026805;28;20050;-62
2022/11/30 03:18:40;;;;;;;36.53;9.10;;;4.10;99.90;;;;;;5028799;28;20046;-62
2022/11/30 03:21:09;;;;;;;35.30;9.50;;;4.10;99.90;;;;;;5013560;28;20049;-62
2022/11/30 03:23:38;;;;;;;30.10;8.63;;;4.10;99.90;;;;;;5020192;28;20052;-62
2022/11/30 03:26:07;;;;;;;31.50;8.90;;;4.10;99.90;;;;;;5030650;28;20420;-62
2022/11/30 03:28:35;;;;;;;42.87;10.50;;;4.10;99.90;;;;;;5018385;28;20050;-62
2022/11/30 03:31:03;;;;;;;32.38;10.60;;;4.10;99.90;;;;;;5013958;28;20049;-64
2022/11/30 03:33:31;;;;;;;32.35;9.45;;;4.10;99.90;;;;;;5015721;28;20046;-63
2022/11/30 03:36:04;;;;;;;27.30;8.55;;;4.10;99.90;;;;;;5013780;28;20049;-63
2022/11/30 03:38:32;;;;;;;29.60;8.50;;;4.10;99.90;;;;;;5013844;28;20049;-62
2022/11/30 03:41:12;;;;;;;29.33;8.25;;;4.10;99.90;;;;;;5021678;28;20405;-62
2022/11/30 03:43:39;;;;;;;;;;;4.10;99.90;;;;;;5021482;28;20524;-62
2022/11/30 03:46:07;;;;;;;35.83;8.57;;;4.10;99.90;;;;;;5012944;28;19925;-62
2022/11/30 03:48:35;;;;;;;33.40;8.93;;;4.10;99.90;;;;;;5022145;28;20064;-62
2022/11/30 03:51:04;;;;;;;32.83;9.32;;;4.10;99.90;;;;;;5032764;28;20477;-62
2022/11/30 03:53:32;;;;;;;23.90;7.25;;;4.00;99.90;;;;;;5020825;28;20049;-63
2022/11/30 03:56:02;;;;;;;27.25;7.65;;;4.00;99.90;;;;;;5013421;28;20054;-69
2022/11/30 03:58:29;;;;;;;29.40;8.27;;;4.00;99.90;;;;;;5012212;28;20049;-77
2022/11/30 04:01:09;;;;;;;30.45;8.43;;;3.90;99.90;;;;;;5012907;28;20053;-78
2022/11/30 04:03:38;;;;;;;33.55;7.50;;;3.90;99.90;;;;;;5013267;28;20130;-76
2022/11/30 04:06:07;;;;;;;32.90;8.63;;;3.90;99.90;;;;;;5013333;28;20058;-78
2022/11/30 04:08:36;;;;;;;36.80;8.63;;;3.90;99.90;;;;;;5014982;28;20625;-72
2022/11/30 04:11:05;;;;;;;31.77;8.18;;;3.90;99.90;;;;;;5031767;28;20046;-73
2022/11/30 04:13:34;;;;;;;27.85;8.30;;;3.90;99.90;;;;;;5031437;28;20042;-77
2022/11/30 04:16:02;;;;;;;31.25;8.45;;;3.90;99.90;;;;;;5030518;28;20052;-74
2022/11/30 04:18:31;;;;;;;34.20;9.27;;;3.90;99.90;;;;;;5029337;28;20485;-72
2022/11/30 04:21:00;;;;;;;34.63;8.70;;;3.90;99.90;;;;;;5016793;28;20045;-74
2022/11/30 04:23:35;;;;;;;40.80;9.10;;;3.90;99.90;;;;;;5031498;28;20382;-75
2022/11/30 04:26:05;;;;;;;36.35;9.73;;;3.90;99.90;;;;;;5032603;28;20498;-68
2022/11/30 04:28:33;;;;;;;39.65;9.68;;;3.90;99.90;;;;;;5029887;28;20485;-75
2022/11/30 04:31:02;;;;;;;35.17;9.55;;;4.00;99.90;;;;;;5026339;28;20045;-72
2022/11/30 04:33:30;;;;;;;27.67;9.23;;;3.90;99.90;;;;;;5013453;28;20046;-71
2022/11/30 04:36:00;;;;;;;28.70;8.88;;;3.90;99.90;;;;;;5012495;28;20069;-76
2022/11/30 04:38:28;;;;;;;25.13;8.05;;;3.90;99.90;;;;;;5014922;28;20038;-77
2022/11/30 04:40:56;;;;;;;26.05;8.52;;;3.90;99.90;;;;;;5022156;28;20049;-72
2022/11/30 04:43:24;;;;;;;29.50;9.30;;;3.90;99.90;;;;;;5025055;28;20480;-75
2022/11/30 04:45:51;;;;;;;30.25;8.57;;;3.80;99.90;;;;;;5027494;28;20045;-76
2022/11/30 04:48:19;;;;;;;29.05;8.32;;;3.80;99.90;;;;;;5031440;28;20061;-70
2022/11/30 04:50:47;;;;;;;30.10;8.52;;;3.80;99.90;;;;;;5029236;28;20049;-75
2022/11/30 04:53:14;;;;;;;22.95;7.38;;;3.80;99.90;;;;;;5032783;28;20045;-65
2022/11/30 04:55:42;;;;;;;29.30;7.97;;;3.80;99.90;;;;;;5033096;28;20038;-65
2022/11/30 04:58:09;;;;;;;29.50;8.48;;;3.70;99.90;;;;;;5021608;28;20049;-63
2022/11/30 05:00:37;;;;;;;23.55;7.90;;;3.70;99.90;;;;;;5023488;28;20662;-63
2022/11/30 05:03:04;;;;;;;23.73;7.72;;;3.80;99.90;;;;;;5025227;28;20046;-62
2022/11/30 05:05:32;;;;;;;20.50;6.75;;;3.70;99.90;;;;;;5022779;28;20048;-62
2022/11/30 05:08:00;;;;;;;18.73;6.28;;;3.70;99.90;;;;;;5029790;28;20542;-63
2022/11/30 05:10:29;;;;;;;21.23;7.32;;;3.70;99.90;;;;;;5025852;28;20045;-62
2022/11/30 05:12:56;;;;;;;17.33;5.93;;;3.70;99.90;;;;;;5014789;28;20398;-63
2022/11/30 05:15:24;;;;;;;21.95;7.15;;;3.80;99.90;;;;;;5019040;28;20053;-62
2022/11/30 05:17:52;;;;;;;23.33;7.45;;;3.70;99.90;;;;;;5029552;28;20041;-63
2022/11/30 05:20:20;;;;;;;24.58;8.07;;;3.70;99.90;;;;;;5030638;28;20049;-64
2022/11/30 05:22:47;;;;;;;22.50;8.05;;;3.70;99.90;;;;;;5013063;28;20046;-63
2022/11/30 05:25:15;;;;;;;31.88;9.00;;;3.70;99.90;;;;;;5019403;28;20057;-62
2022/11/30 05:27:43;;;;;;;27.60;8.18;;;3.70;99.90;;;;;;5019185;28;20038;-64
2022/11/30 05:30:11;;;;;;;38.20;9.43;;;3.60;99.90;;;;;;5027067;28;20052;-62
2022/11/30 05:32:39;;;;;;;34.17;9.23;;;3.60;99.90;;;;;;5020242;28;20034;-70
2022/11/30 05:35:07;;;;;;;33.10;9.43;;;3.60;99.90;;;;;;5023820;28;20401;-62
2022/11/30 05:37:35;;;;;;;31.52;9.05;;;3.60;99.90;;;;;;5028990;28;20505;-62
2022/11/30 05:40:03;;;;;;;29.33;9.10;;;3.60;99.90;;;;;;5028137;28;20049;-65
2022/11/30 05:42:30;;;;;;;33.45;9.27;;;3.60;99.90;;;;;;5012401;28;20046;-64
2022/11/30 05:44:58;;;;;;;32.97;10.35;;;3.60;99.90;;;;;;5019403;28;20049;-62
2022/11/30 05:47:25;;;;;;;30.40;9.88;;;3.70;99.90;;;;;;5016647;28;20061;-65
2022/11/30 05:49:53;;;;;;;34.42;9.88;;;3.70;99.90;;;;;;5026903;28;20052;-63
2022/11/30 05:52:21;;;;;;;40.70;10.63;;;3.70;99.90;;;;;;5013319;28;20046;-63
2022/11/30 05:54:48;;;;;;;32.70;9.20;;;3.70;99.90;;;;;;5007274;28;20057;-67
2022/11/30 05:57:16;;;;;;;37.45;10.88;;;3.70;99.90;;;;;;5009675;28;20058;-70
2022/11/30 05:59:44;;;;;;;34.05;9.07;;;3.70;99.90;;;;;;5011196;28;20053;-65
2022/11/30 06:02:11;;;;;;;31.02;10.00;;;3.70;99.90;;;;;;5005313;28;20049;-63
2022/11/30 06:04:39;;;;;;;34.55;10.52;;;3.70;99.90;;;;;;5004348;28;20527;-64
2022/11/30 06:07:10;;;;;;;36.95;10.43;;;3.70;99.90;;;;;;5005581;28;20046;-65
2022/11/30 06:09:38;;;;;;;41.05;11.27;;;3.70;99.90;;;;;;5027509;28;20049;-63
2022/11/30 06:12:06;;;;;;;38.83;10.52;;;3.70;99.90;;;;;;5024854;28;20054;-64
2022/11/30 06:14:34;;;;;;;34.90;9.88;;;3.70;99.90;;;;;;5023563;28;20037;-65
2022/11/30 06:17:02;;;;;;;39.38;10.45;;;3.70;99.90;;;;;;5019082;28;20053;-64
2022/11/30 06:19:29;;;;;;;41.90;10.60;;;3.70;99.90;;;;;;5027791;28;20049;-69
2022/11/30 06:21:57;;;;;;;32.88;9.93;;;3.70;99.90;;;;;;5027120;28;20049;-64
2022/11/30 06:24:24;;;;;;;34.03;9.98;;;3.80;99.90;;;;;;5013953;28;20046;-64
2022/11/30 06:26:52;;;;;;;29.77;9.45;;;3.80;99.90;;;;;;5009340;28;20050;-62
2022/11/30 06:29:19;;;;;;;30.98;9.85;;;3.80;99.90;;;;;;5026656;28;20078;-64
2022/11/30 06:31:47;;;;;;;32.30;8.40;;;3.80;99.90;;;;;;5013444;28;20046;-67
2022/11/30 06:34:15;;;;;;;34.95;9.48;;;3.80;99.90;;;;;;5023424;28;20044;-63
2022/11/30 06:36:42;;;;;;;41.35;9.82;;;3.80;99.90;;;;;;5010303;28;20064;-63
2022/11/30 06:39:11;;;;;;;24.02;7.95;;;3.80;99.90;;;;;;5025487;28;20046;-63
2022/11/30 06:41:39;;;;;;;20.92;8.55;;;3.80;99.90;;;;;;5025486;28;20061;-63
2022/11/30 06:44:08;;;;;;;30.40;8.75;;;3.80;99.90;;;;;;5025802;28;20056;-75
2022/11/30 06:46:35;;;;;;;33.33;9.30;;;3.80;99.90;;;;;;5015991;28;20045;-76
2022/11/30 06:49:03;;;;;;;29.45;8.85;;;3.70;99.90;;;;;;5010331;28;20049;-73
2022/11/30 06:51:31;;;;;;;35.35;9.75;;;3.70;99.90;;;;;;5013870;28;20049;-69
2022/11/30 06:53:59;;;;;;;35.10;10.70;;;3.80;99.90;;;;;;5018020;28;20041;-79
2022/11/30 06:56:27;;;;;;;31.58;9.82;;;3.80;99.90;;;;;;5026206;28;20043;-74
2022/11/30 06:58:54;;;;;;;32.78;9.95;;;3.80;99.90;;;;;;5017478;28;20065;-75
2022/11/30 07:01:22;;;;;;;35.72;9.45;;;3.80;99.90;;;;;;5013444;28;20057;-74
2022/11/30 07:03:51;;;;;;;34.90;9.63;;;3.80;99.90;;;;;;5020479;28;20504;-77
2022/11/30 07:06:18;;;;;;;30.92;9.15;;;3.80;99.90;;;;;;5027069;28;20057;-77
2022/11/30 07:08:46;;;;;;;28.55;8.77;;;3.80;99.90;;;;;;5021979;28;20097;-78
2022/11/30 07:11:14;;;;;;;27.75;8.05;;;3.80;99.90;;;;;;5012724;28;20473;-74
2022/11/30 07:13:41;;;;;;;20.48;6.90;;;3.80;99.90;;;;;;5047683;28;20489;-75
2022/11/30 07:16:10;;;;;;;16.95;6.32;;;3.80;99.90;;;;;;5021887;28;20049;-75
2022/11/30 07:18:38;;;;;;;21.15;7.93;;;3.80;99.90;;;;;;5014396;28;20054;-75
2022/11/30 07:21:07;;;;;;;21.25;6.88;;;3.80;99.90;;;;;;5010209;28;20041;-74
2022/11/30 07:26:24;;;;;;;22.30;7.80;;;3.80;99.90;;;;;;5029187;28;20429;-71
2022/11/30 07:28:53;;;;;;;17.42;7.05;;;3.80;99.90;;;;;;5023009;28;20068;-66
2022/11/30 07:31:25;;;;;;;15.70;6.10;;;3.90;99.90;;;;;;5014941;28;20500;-68
2022/11/30 07:33:54;;;;;;;15.77;6.75;;;3.90;99.90;;;;;;5030115;28;20063;-64
2022/11/30 07:36:24;;;;;;;16.13;7.28;;;3.90;99.90;;;;;;5016174;28;21809;-63
2022/11/30 07:38:52;;;;;;;;;;;3.80;99.90;;;;;;5028236;28;20045;-64
2022/11/30 07:41:19;;;;;;;18.98;6.68;;;3.90;99.90;;;;;;5018034;28;19921;-65
2022/11/30 07:43:47;;;;;;;16.65;6.88;;;3.90;99.90;;;;;;5025712;28;20045;-63
2022/11/30 07:46:15;;;;;;;15.55;6.95;;;3.90;99.90;;;;;;5018421;28;20053;-62
2022/11/30 07:48:44;;;;;;;13.50;6.45;;;4.00;99.90;;;;;;5014090;28;20049;-62
2022/11/30 07:51:15;;;;;;;18.97;6.57;;;4.00;99.90;;;;;;5015283;28;20045;-62
2022/11/30 07:53:43;;;;;;;16.23;6.70;;;4.00;99.90;;;;;;5021443;28;20472;-63
2022/11/30 07:56:16;;;;;;;19.52;7.97;;;3.90;99.90;;;;;;5020496;28;20505;-68
2022/11/30 07:58:45;;;;;;;16.48;6.68;;;4.00;99.90;;;;;;5016307;28;20050;-62
2022/11/30 08:01:16;;;;;;;16.48;5.70;;;4.10;99.90;;;;;;5009769;28;20045;-65
2022/11/30 08:03:44;;;;;;;18.98;7.45;;;4.00;99.90;;;;;;5012355;28;20052;-63
2022/11/30 08:06:21;;;;;;;16.95;7.03;;;4.00;99.90;;;;;;5023318;28;20801;-63
2022/11/30 08:08:51;;;;;;;15.13;7.47;;;4.10;99.90;;;;;;5021724;28;20041;-65
2022/11/30 08:11:21;;;;;;;17.30;7.20;;;4.10;99.90;;;;;;5022356;28;20053;-63
2022/11/30 08:13:49;;;;;;;15.73;6.78;;;4.10;99.90;;;;;;5021122;28;20069;-63
2022/11/30 08:16:19;;;;;;;16.65;7.38;;;4.10;99.90;;;;;;5013435;28;20512;-62
2022/11/30 08:18:48;;;;;;;16.38;6.38;;;4.90;99.90;;;;;;5026228;28;20432;-64
2022/11/30 08:21:18;;;;;;;19.42;6.68;;;4.10;99.90;;;;;;5025594;28;20054;-64
2022/11/30 08:23:51;;;;;;;20.50;8.13;;;4.10;99.90;;;;;;5012685;28;20405;-63
2022/11/30 08:26:22;;;;;;;24.65;9.60;;;4.20;99.90;;;;;;5024689;28;20497;-64
2022/11/30 08:28:51;;;;;;;28.60;10.05;;;4.20;99.90;;;;;;5021551;28;20041;-63
2022/11/30 08:31:35;;;;;;;19.42;7.50;;;4.20;99.90;;;;;;5015902;28;20049;-64
2022/11/30 08:34:05;;;;;;;23.05;8.48;;;4.20;99.90;;;;;;5010942;28;20507;-67
2022/11/30 08:36:33;;;;;;;24.67;9.15;;;4.30;99.90;;;;;;5009122;28;20050;-63
2022/11/30 08:39:03;;;;;;;28.58;9.38;;;4.20;99.90;;;;;;5025619;28;20041;-63
2022/11/30 08:41:33;;;;;;;26.17;9.70;;;4.30;99.90;;;;;;5019738;28;20041;-63
2022/11/30 08:44:01;;;;;;;29.67;9.77;;;4.30;99.90;;;;;;5020752;28;20046;-63
2022/11/30 08:46:29;;;;;;;26.77;8.60;;;4.30;99.90;;;;;;5025126;28;20060;-62
2022/11/30 08:49:17;;;;;;;31.98;10.60;;;4.30;99.90;;;;;;5016152;28;20482;-64
2022/11/30 08:51:53;;;;;;;25.15;9.07;;;4.30;99.90;;;;;;5019867;28;20042;-64
2022/11/30 08:54:43;;;;;;;22.33;7.95;;;4.30;99.90;;;;;;5023294;28;20050;-68
2022/11/30 08:57:17;;;;;;;17.42;6.68;;;4.30;99.90;;;;;;5023081;28;20042;-71
2022/11/30 08:59:45;;;;;;;16.20;6.00;;;4.30;99.90;;;;;;5025203;28;20042;-74
2022/11/30 09:02:16;;;;;;;16.63;5.82;;;4.30;99.90;;;;;;5015212;28;20054;-63
2022/11/30 09:04:47;;;;;;;17.15;5.65;;;4.30;99.90;;;;;;5009351;28;20046;-65
2022/11/30 09:07:16;;;;;;;19.15;5.78;;;4.30;99.90;;;;;;5011517;28;20401;-63
2022/11/30 09:09:44;;;;;;;17.35;5.72;;;4.30;99.90;;;;;;5019790;28;20084;-63
2022/11/30 09:12:12;;;;;;;15.50;5.80;;;4.40;99.90;;;;;;5024984;28;20120;-63
2022/11/30 09:14:39;;;;;;;14.55;6.00;;;4.40;99.90;;;;;;5027011;28;20213;-65
2022/11/30 09:17:08;;;;;;;19.23;6.53;;;4.40;99.90;;;;;;5016066;28;20037;-64
2022/11/30 09:19:35;;;;;;;17.45;5.78;;;4.40;99.90;;;;;;5028602;28;20053;-64
2022/11/30 09:22:03;;;;;;;20.13;6.43;;;4.40;99.90;;;;;;5026289;28;20041;-64
2022/11/30 09:24:31;;;;;;;17.20;7.18;;;4.50;99.90;;;;;;5012329;28;20042;-68
2022/11/30 09:26:58;;;;;;;20.63;7.68;;;4.40;99.90;;;;;;5027614;28;20046;-68
2022/11/30 09:29:26;;;;;;;17.38;6.00;;;4.50;99.90;;;;;;5027884;28;20045;-69
2022/11/30 09:31:54;;;;;;;16.23;5.85;;;4.50;99.90;;;;;;5019091;28;20057;-67
2022/11/30 09:34:21;;;;;;;14.98;6.95;;;4.50;99.90;;;;;;5023235;28;20037;-74
2022/11/30 09:36:49;;;;;;;20.23;6.63;;;4.50;99.90;;;;;;5009441;28;20045;-75
2022/11/30 09:39:17;;;;;;;15.07;6.38;;;4.50;99.90;;;;;;5010316;28;20529;-68
2022/11/30 09:41:47;;;;;;;25.02;7.78;;;4.50;99.90;;;;;;5023174;28;20397;-75
2022/11/30 09:44:24;;;;;;;24.52;7.25;;;4.50;99.90;;;;;;5011077;28;20046;-73
2022/11/30 09:47:07;;;;;;;26.40;8.05;;;4.50;99.90;;;;;;5007737;28;20513;-77
2022/11/30 09:49:45;;;;;;;25.95;6.25;;;4.50;99.90;;;;;;5008719;28;20516;-74
2022/11/30 09:52:23;;;;;;;25.50;7.55;;;4.50;99.90;;;;;;5014987;28;20053;-74
2022/11/30 09:54:50;;;;;;;22.60;7.03;;;4.50;99.90;;;;;;5008739;28;20661;-75
2022/11/30 09:57:40;;;;;;;25.63;8.30;;;4.50;99.90;;;;;;5010390;28;20045;-72
2022/11/30 10:00:13;;;;;;;23.25;6.75;;;4.50;99.90;;;;;;5024798;28;20072;-75
2022/11/30 10:02:42;;;;;;;26.40;7.97;;;4.50;99.90;;;;;;5026999;28;20049;-64
2022/11/30 10:05:17;;;;;;;29.42;7.53;;;4.60;99.90;;;;;;5009393;28;20057;-63
2022/11/30 10:07:57;;;;;;;24.67;7.50;;;4.60;99.90;;;;;;5005863;28;20042;-63
2022/11/30 10:10:31;;;;;;;27.60;7.35;;;4.60;99.90;;;;;;5023797;28;20056;-63
2022/11/30 10:13:28;;;;;;;21.55;7.85;;;4.60;99.90;;;;;;5025697;28;20066;-66
2022/11/30 10:16:05;;;;;;;25.92;7.88;;;4.60;99.90;;;;;;5006354;28;20054;-63
2022/11/30 10:18:44;;;;;;;25.75;7.82;;;4.60;99.90;;;;;;5014231;28;20497;-66
2022/11/30 10:21:35;;;;;;;19.77;6.75;;;4.60;99.90;;;;;;5009104;28;20046;-63
2022/11/30 10:24:41;;;;;;;20.77;7.13;;;4.70;99.90;;;;;;5025843;28;20508;-63
2022/11/30 10:27:44;;;;;;;24.95;7.78;;;4.70;99.90;;;;;;5012258;28;20063;-64
2022/11/30 10:30:15;;;;;;;24.48;9.27;;;4.70;99.90;;;;;;5010102;28;20053;-64
2022/11/30 10:32:47;;;;;;;25.25;9.18;;;4.70;99.90;;;;;;5024223;28;20053;-64
2022/11/30 10:35:37;;;;;;;30.85;10.05;;;4.70;99.90;;;;;;5017298;28;20580;-64
2022/11/30 10:38:35;;;;;;;28.58;9.82;;;4.70;99.90;;;;;;5011656;28;20046;-63
2022/11/30 10:41:10;;;;;;;32.08;11.40;;;4.70;99.90;;;;;;5004624;28;20042;-64
2022/11/30 10:43:47;;;;;;;28.10;11.70;;;4.70;99.90;;;;;;5007896;28;20049;-63
2022/11/30 10:46:27;;;;;;;37.58;11.88;;;4.70;99.90;;;;;;5026443;28;20061;-65
2022/11/30 10:49:01;;;;;;;31.65;10.90;;;4.70;99.90;;;;;;5024999;28;20677;-64
2022/11/30 10:51:30;;;;;;;29.63;11.75;;;4.80;99.90;;;;;;5014287;28;20046;-66
2022/11/30 10:53:59;;;;;;;29.83;12.82;;;4.80;99.90;;;;;;5015391;28;20050;-65
2022/11/30 10:56:27;;;;;;;29.55;12.73;;;4.80;99.90;;;;;;5025645;28;20060;-64
2022/11/30 10:59:03;;;;;;;29.80;12.52;;;4.80;99.90;;;;;;5014996;28;20061;-64
2022/11/30 11:01:36;;;;;;;36.65;13.95;;;4.80;99.90;;;;;;5010966;28;20417;-68
2022/11/30 11:04:16;;;;;;;31.60;11.35;;;4.80;99.90;;;;;;5019619;28;20046;-63
2022/11/30 11:06:55;;;;;;;34.55;12.73;;;4.80;99.90;;;;;;5023712;28;20063;-63
2022/11/30 11:09:30;;;;;;;31.63;12.45;;;4.90;99.90;;;;;;5006495;28;20049;-63
2022/11/30 11:12:05;;;;;;;28.40;13.20;;;4.90;99.90;;;;;;5009802;28;20045;-75
2022/11/30 11:14:34;;;;;;;29.98;12.80;;;4.90;99.90;;;;;;5013595;28;20061;-74
2022/11/30 11:17:17;;;;;;;28.13;10.77;;;4.90;99.90;;;;;;5013839;28;20042;-66
2022/11/30 11:19:47;;;;;;;24.70;10.80;;;5.00;99.90;;;;;;5021985;28;20060;-64
2022/11/30 11:22:28;;;;;;;20.77;10.35;;;4.80;99.90;;;;;;5013445;28;20401;-64
2022/11/30 11:25:21;;;;;;;23.92;10.68;;;5.00;99.90;;;;;;5011313;28;20484;-63
2022/11/30 11:27:54;;;;;;;21.45;9.65;;;5.00;99.90;;;;;;5014072;28;20521;-63
2022/11/30 11:30:25;;;;;;;20.77;9.60;;;5.00;99.90;;;;;;5009796;28;21607;-63
2022/11/30 11:33:01;;;;;;;18.88;9.55;;;5.00;99.90;;;;;;5012495;28;20037;-65
2022/11/30 11:35:34;;;;;;;15.10;7.57;;;5.10;99.90;;;;;;5011061;28;20049;-64
2022/11/30 11:38:02;;;;;;;15.10;7.57;;;5.10;99.90;;;;;;5024559;28;20060;-63
2022/11/30 11:40:29;;;;;;;10.07;5.95;;;5.10;99.90;;;;;;5016604;28;20407;-63
2022/11/30 11:42:59;;;;;;;11.77;6.97;;;5.10;99.90;;;;;;5043822;28;20050;-63
2022/11/30 11:45:29;;;;;;;12.25;5.32;;;5.20;99.90;;;;;;5007799;28;20053;-64
2022/11/30 11:48:02;;;;;;;12.25;5.78;;;5.10;99.90;;;;;;5021992;28;20108;-64
2022/11/30 11:50:31;;;;;;;13.60;7.85;;;5.20;99.90;;;;;;5015927;28;20050;-64
2022/11/30 11:53:21;;;;;;;18.08;7.10;;;5.20;99.90;;;;;;5016162;28;20056;-63
2022/11/30 11:56:05;;;;;;;11.52;5.20;;;5.30;99.90;;;;;;5014203;28;20058;-68
2022/11/30 11:58:49;;;;;;;9.43;4.25;;;5.30;99.90;;;;;;5019566;28;20069;-71
2022/11/30 12:01:39;;;;;;;20.63;9.45;;;5.30;99.90;;;;;;5028763;28;20512;-65
2022/11/30 12:04:46;;;;;;;11.05;5.18;;;5.40;99.90;;;;;;5023405;28;20710;-76
2022/11/30 12:07:23;;;;;;;12.43;5.60;;;5.40;99.90;;;;;;5002111;28;20065;-73
2022/11/30 12:10:27;;;;;;;13.60;6.40;;;5.40;99.90;;;;;;5028667;28;20603;-64
2022/11/30 12:13:31;;;;;;;12.13;6.18;;;5.50;99.90;;;;;;5013338;28;20048;-72
2022/11/30 12:16:04;;;;;;;9.10;3.97;;;5.50;99.90;;;;;;5020551;28;20065;-79
2022/11/30 12:18:40;;;;;;;10.70;4.60;;;5.50;99.90;;;;;;5014770;28;20049;-79
2022/11/30 12:21:28;;;;;;;13.50;5.30;;;5.50;99.90;;;;;;5015861;28;20034;-71
2022/11/30 12:24:30;;;;;;;8.05;4.63;;;5.50;99.90;;;;;;5045194;28;20049;-68
2022/11/30 12:27:08;;;;;;;10.48;4.45;;;5.50;99.90;;;;;;5030019;28;20048;-78
2022/11/30 12:30:08;;;;;;;7.07;4.10;;;5.50;99.90;;;;;;5010646;28;20100;-81
2022/11/30 12:32:48;;;;;;;6.07;3.45;;;5.50;99.90;;;;;;5027272;28;20046;-78
2022/11/30 12:35:34;;;;;;;11.15;4.70;;;5.50;99.90;;;;;;5012665;28;20057;-75
2022/11/30 12:38:17;;;;;;;12.27;4.97;;;5.50;99.90;;;;;;5016773;28;20045;-68
2022/11/30 12:41:16;;;;;;;10.77;4.85;;;5.50;99.90;;;;;;5017019;28;20057;-77
2022/11/30 12:44:07;;;;;;;11.77;5.43;;;5.60;99.90;;;;;;5028767;28;20038;-67
2022/11/30 12:46:59;;;;;;;10.63;5.30;;;5.60;99.90;;;;;;5028905;28;20098;-64
2022/11/30 12:50:05;;;;;;;9.98;5.78;;;5.70;99.90;;;;;;5028034;28;20060;-81
2022/11/30 12:52:43;;;;;;;9.90;5.07;;;5.70;99.90;;;;;;5027848;28;20045;-62
2022/11/30 12:55:10;;;;;;;9.88;4.57;;;5.70;99.90;;;;;;5015513;28;20050;-62
2022/11/30 12:58:06;;;;;;;9.43;5.88;;;5.70;99.90;;;;;;5013504;28;20045;-66
2022/11/30 13:00:54;;;;;;;11.95;5.65;;;5.70;99.90;;;;;;5027565;28;20044;-62
2022/11/30 13:03:41;;;;;;;12.98;5.80;;;5.70;99.90;;;;;;5011494;28;20045;-64
2022/11/30 13:06:35;;;;;;;10.23;5.10;;;5.70;99.90;;;;;;5027130;28;20615;-64
2022/11/30 13:09:09;;;;;;;9.50;5.10;;;5.70;99.90;;;;;;5016075;28;20052;-65
2022/11/30 13:11:41;;;;;;;11.80;5.10;;;5.70;99.90;;;;;;5021481;28;20045;-63
2022/11/30 13:14:13;;;;;;;12.20;7.03;;;5.70;99.90;;;;;;5026576;28;20528;-63
2022/11/30 13:16:42;;;;;;;12.85;6.18;;;5.70;99.90;;;;;;5028131;28;20056;-63